sensor_id;sensor_type;location;lat;lon;timestamp;pressure;altitude;pressure_sealevel;temperature;humidity
51468;BME280;37545;45.302;-122.946;2024-03-06T00:07:21;100871.81;;;10.78;50.13
51468;BME280;37545;45.302;-122.946;2024-03-06T00:09:51;100877.91;;;10.80;47.97
51468;BME280;37545;45.302;-122.946;2024-03-06T00:12:20;100877.00;;;10.78;49.57
51468;BME280;37545;45.302;-122.946;2024-03-06T00:14:49;100865.50;;;10.69;49.57
51468;BME280;37545;45.302;-122.946;2024-03-06T00:17:18;100875.69;;;10.63;51.62
51468;BME280;37545;45.302;-122.946;2024-03-06T00:19:54;100879.84;;;10.58;51.95
51468;BME280;37545;45.302;-122.946;2024-03-06T00:22:25;100878.22;;;10.35;52.57
51468;BME280;37545;45.302;-122.946;2024-03-06T00:24:54;100887.91;;;10.15;53.52
51468;BME280;37545;45.302;-122.946;2024-03-06T00:27:32;100883.84;;;9.97;52.96
51468;BME280;37545;45.302;-122.946;2024-03-06T00:30:03;100871.72;;;9.71;54.00
51468;BME280;37545;45.302;-122.946;2024-03-06T00:32:33;100878.97;;;9.55;54.67
51468;BME280;37545;45.302;-122.946;2024-03-06T00:35:05;100876.78;;;9.43;55.22
51468;BME280;37545;45.302;-122.946;2024-03-06T00:37:43;100874.47;;;9.26;56.98
51468;BME280;37545;45.302;-122.946;2024-03-06T00:40:13;100870.47;;;9.11;59.18
51468;BME280;37545;45.302;-122.946;2024-03-06T00:42:45;100862.53;;;9.07;58.82
51468;BME280;37545;45.302;-122.946;2024-03-06T00:45:18;100863.03;;;8.96;58.83
51468;BME280;37545;45.302;-122.946;2024-03-06T00:47:50;100867.38;;;8.97;59.32
51468;BME280;37545;45.302;-122.946;2024-03-06T00:50:19;100862.19;;;8.97;59.64
51468;BME280;37545;45.302;-122.946;2024-03-06T00:55:28;100864.75;;;8.96;61.53
51468;BME280;37545;45.302;-122.946;2024-03-06T00:58:00;100863.75;;;8.92;61.89
51468;BME280;37545;45.302;-122.946;2024-03-06T01:00:40;100859.41;;;8.91;62.06
51468;BME280;37545;45.302;-122.946;2024-03-06T01:03:09;100874.06;;;8.92;61.87
51468;BME280;37545;45.302;-122.946;2024-03-06T01:05:38;100874.00;;;8.91;59.99
51468;BME280;37545;45.302;-122.946;2024-03-06T01:08:08;100875.69;;;8.90;59.68
51468;BME280;37545;45.302;-122.946;2024-03-06T01:10:41;100875.59;;;8.87;59.21
51468;BME280;37545;45.302;-122.946;2024-03-06T01:13:10;100879.75;;;8.84;58.47
51468;BME280;37545;45.302;-122.946;2024-03-06T01:15:39;100885.66;;;8.81;58.14
51468;BME280;37545;45.302;-122.946;2024-03-06T01:18:26;100874.75;;;8.66;58.93
51468;BME280;37545;45.302;-122.946;2024-03-06T01:20:55;100885.13;;;8.67;58.64
51468;BME280;37545;45.302;-122.946;2024-03-06T01:23:26;100881.25;;;8.56;59.06
51468;BME280;37545;45.302;-122.946;2024-03-06T01:26:07;100880.13;;;8.49;59.34
51468;BME280;37545;45.302;-122.946;2024-03-06T01:28:36;100881.91;;;8.50;60.90
51468;BME280;37545;45.302;-122.946;2024-03-06T01:31:05;100880.97;;;8.48;63.27
51468;BME280;37545;45.302;-122.946;2024-03-06T01:33:38;100880.72;;;8.42;62.69
51468;BME280;37545;45.302;-122.946;2024-03-06T01:36:07;100877.19;;;8.40;62.60
51468;BME280;37545;45.302;-122.946;2024-03-06T01:38:37;100884.69;;;8.35;64.89
51468;BME280;37545;45.302;-122.946;2024-03-06T01:41:08;100881.94;;;8.31;65.58
51468;BME280;37545;45.302;-122.946;2024-03-06T01:43:45;100884.91;;;8.19;63.90
51468;BME280;37545;45.302;-122.946;2024-03-06T01:46:14;100889.84;;;8.14;65.22
51468;BME280;37545;45.302;-122.946;2024-03-06T01:48:43;100886.97;;;8.07;65.76
51468;BME280;37545;45.302;-122.946;2024-03-06T01:51:17;100902.06;;;7.97;65.40
51468;BME280;37545;45.302;-122.946;2024-03-06T01:53:48;100901.50;;;7.85;64.07
51468;BME280;37545;45.302;-122.946;2024-03-06T01:56:19;100898.34;;;7.71;65.53
51468;BME280;37545;45.302;-122.946;2024-03-06T01:58:48;100897.00;;;7.60;66.02
51468;BME280;37545;45.302;-122.946;2024-03-06T02:01:20;100887.13;;;7.50;67.02
51468;BME280;37545;45.302;-122.946;2024-03-06T02:03:51;100892.19;;;7.48;68.94
51468;BME280;37545;45.302;-122.946;2024-03-06T02:06:21;100892.75;;;7.41;69.89
51468;BME280;37545;45.302;-122.946;2024-03-06T02:08:51;100899.31;;;7.34;69.69
51468;BME280;37545;45.302;-122.946;2024-03-06T02:11:28;100893.06;;;7.29;70.66
51468;BME280;37545;45.302;-122.946;2024-03-06T02:13:59;100888.53;;;7.24;71.09
51468;BME280;37545;45.302;-122.946;2024-03-06T02:19:06;100890.75;;;7.16;70.85
51468;BME280;37545;45.302;-122.946;2024-03-06T02:21:37;100894.16;;;7.15;72.35
51468;BME280;37545;45.302;-122.946;2024-03-06T02:24:07;100894.75;;;7.09;73.41
51468;BME280;37545;45.302;-122.946;2024-03-06T02:26:46;100898.88;;;7.06;72.65
51468;BME280;37545;45.302;-122.946;2024-03-06T02:29:16;100897.63;;;6.98;72.70
51468;BME280;37545;45.302;-122.946;2024-03-06T02:31:45;100901.81;;;6.96;74.59
51468;BME280;37545;45.302;-122.946;2024-03-06T02:34:14;100897.88;;;6.84;74.35
51468;BME280;37545;45.302;-122.946;2024-03-06T02:36:53;100903.63;;;6.79;73.71
51468;BME280;37545;45.302;-122.946;2024-03-06T02:39:22;100898.31;;;6.76;74.23
51468;BME280;37545;45.302;-122.946;2024-03-06T02:41:51;100910.25;;;6.74;74.81
51468;BME280;37545;45.302;-122.946;2024-03-06T02:44:25;100893.22;;;6.58;75.12
51468;BME280;37545;45.302;-122.946;2024-03-06T02:46:56;100895.47;;;6.52;75.26
51468;BME280;37545;45.302;-122.946;2024-03-06T02:49:25;100902.44;;;6.54;76.11
51468;BME280;37545;45.302;-122.946;2024-03-06T02:51:59;100913.38;;;6.50;77.25
51468;BME280;37545;45.302;-122.946;2024-03-06T02:54:31;100915.50;;;6.41;77.94
51468;BME280;37545;45.302;-122.946;2024-03-06T02:57:01;100920.44;;;6.36;79.08
51468;BME280;37545;45.302;-122.946;2024-03-06T02:59:29;100928.56;;;6.27;80.44
51468;BME280;37545;45.302;-122.946;2024-03-06T03:01:58;100926.50;;;6.20;80.97
51468;BME280;37545;45.302;-122.946;2024-03-06T03:04:31;100933.09;;;6.15;81.40
51468;BME280;37545;45.302;-122.946;2024-03-06T03:07:01;100939.84;;;6.13;82.51
51468;BME280;37545;45.302;-122.946;2024-03-06T03:09:32;100942.28;;;6.10;83.76
51468;BME280;37545;45.302;-122.946;2024-03-06T03:12:02;100935.72;;;5.99;84.59
51468;BME280;37545;45.302;-122.946;2024-03-06T03:14:34;100941.34;;;5.93;85.09
51468;BME280;37545;45.302;-122.946;2024-03-06T03:17:04;100954.88;;;5.89;86.70
51468;BME280;37545;45.302;-122.946;2024-03-06T03:19:38;100944.91;;;5.79;88.42
51468;BME280;37545;45.302;-122.946;2024-03-06T03:22:21;100951.75;;;5.78;89.49
51468;BME280;37545;45.302;-122.946;2024-03-06T03:24:51;100949.03;;;5.75;89.02
51468;BME280;37545;45.302;-122.946;2024-03-06T03:27:22;100956.31;;;5.67;89.97
51468;BME280;37545;45.302;-122.946;2024-03-06T03:29:56;100951.31;;;5.54;92.35
51468;BME280;37545;45.302;-122.946;2024-03-06T03:32:25;100948.03;;;5.40;98.59
51468;BME280;37545;45.302;-122.946;2024-03-06T03:34:54;100948.97;;;5.26;99.64
51468;BME280;37545;45.302;-122.946;2024-03-06T03:37:30;100945.75;;;5.14;100.00
51468;BME280;37545;45.302;-122.946;2024-03-06T03:40:08;100944.63;;;5.09;100.00
51468;BME280;37545;45.302;-122.946;2024-03-06T04:33:15;100974.72;;;4.35;100.00
51468;BME280;37545;45.302;-122.946;2024-03-06T04:35:46;100973.75;;;4.33;100.00
51468;BME280;37545;45.302;-122.946;2024-03-06T04:38:24;100981.44;;;4.33;100.00
51468;BME280;37545;45.302;-122.946;2024-03-06T04:40:54;100986.44;;;4.32;100.00
51468;BME280;37545;45.302;-122.946;2024-03-06T04:43:23;100987.66;;;4.24;100.00
51468;BME280;37545;45.302;-122.946;2024-03-06T04:45:52;100980.41;;;4.16;100.00
51468;BME280;37545;45.302;-122.946;2024-03-06T04:48:33;100991.19;;;4.11;100.00
51468;BME280;37545;45.302;-122.946;2024-03-06T04:51:05;100992.41;;;4.03;100.00
51468;BME280;37545;45.302;-122.946;2024-03-06T04:53:47;101002.75;;;4.04;100.00
51468;BME280;37545;45.302;-122.946;2024-03-06T04:56:17;100994.63;;;3.96;100.00
51468;BME280;37545;45.302;-122.946;2024-03-06T04:58:50;101003.34;;;4.00;100.00
51468;BME280;37545;45.302;-122.946;2024-03-06T05:01:33;101006.44;;;3.94;100.00
51468;BME280;37545;45.302;-122.946;2024-03-06T05:04:03;100998.38;;;3.88;100.00
51468;BME280;37545;45.302;-122.946;2024-03-06T05:06:32;100998.00;;;3.82;100.00
51468;BME280;37545;45.302;-122.946;2024-03-06T05:09:02;100989.00;;;3.74;100.00
51468;BME280;37545;45.302;-122.946;2024-03-06T05:11:37;100997.09;;;3.67;100.00
51468;BME280;37545;45.302;-122.946;2024-03-06T05:14:05;100989.31;;;3.65;100.00
51468;BME280;37545;45.302;-122.946;2024-03-06T05:16:35;100992.31;;;3.58;100.00
51468;BME280;37545;45.302;-122.946;2024-03-06T05:19:22;100987.06;;;3.56;100.00
51468;BME280;37545;45.302;-122.946;2024-03-06T05:21:59;100985.75;;;3.48;100.00
51468;BME280;37545;45.302;-122.946;2024-03-06T05:24:32;100998.13;;;3.55;100.00
51468;BME280;37545;45.302;-122.946;2024-03-06T05:27:01;101003.22;;;3.55;100.00
51468;BME280;37545;45.302;-122.946;2024-03-06T05:29:31;100997.31;;;3.56;100.00
51468;BME280;37545;45.302;-122.946;2024-03-06T05:55:11;101010.38;;;3.33;100.00
51468;BME280;37545;45.302;-122.946;2024-03-06T05:57:41;101017.94;;;3.31;100.00
51468;BME280;37545;45.302;-122.946;2024-03-06T06:00:12;101010.56;;;3.23;100.00
51468;BME280;37545;45.302;-122.946;2024-03-06T06:02:42;101021.41;;;3.19;100.00
51468;BME280;37545;45.302;-122.946;2024-03-06T06:05:13;101016.88;;;3.14;100.00
51468;BME280;37545;45.302;-122.946;2024-03-06T06:07:45;101019.44;;;3.14;100.00
51468;BME280;37545;45.302;-122.946;2024-03-06T06:10:17;101019.22;;;3.11;100.00
51468;BME280;37545;45.302;-122.946;2024-03-06T06:12:53;101023.75;;;3.15;100.00
51468;BME280;37545;45.302;-122.946;2024-03-06T06:15:22;101026.53;;;3.19;100.00
51468;BME280;37545;45.302;-122.946;2024-03-06T06:17:52;101028.78;;;3.14;100.00
51468;BME280;37545;45.302;-122.946;2024-03-06T06:20:21;101022.28;;;3.06;100.00
51468;BME280;37545;45.302;-122.946;2024-03-06T06:22:53;101036.75;;;3.05;100.00
51468;BME280;37545;45.302;-122.946;2024-03-06T06:25:24;101029.38;;;2.97;100.00
51468;BME280;37545;45.302;-122.946;2024-03-06T06:27:53;101037.03;;;2.97;100.00
51468;BME280;37545;45.302;-122.946;2024-03-06T06:30:22;101037.31;;;2.88;100.00
51468;BME280;37545;45.302;-122.946;2024-03-06T06:32:51;101038.13;;;2.87;100.00
51468;BME280;37545;45.302;-122.946;2024-03-06T06:35:21;101035.47;;;2.85;100.00
51468;BME280;37545;45.302;-122.946;2024-03-06T06:37:51;101038.88;;;2.86;100.00
51468;BME280;37545;45.302;-122.946;2024-03-06T06:40:20;101036.03;;;2.81;100.00
51468;BME280;37545;45.302;-122.946;2024-03-06T06:43:00;101035.16;;;2.81;100.00
51468;BME280;37545;45.302;-122.946;2024-03-06T06:45:29;101033.28;;;2.78;100.00
51468;BME280;37545;45.302;-122.946;2024-03-06T06:47:58;101036.84;;;2.80;100.00
51468;BME280;37545;45.302;-122.946;2024-03-06T06:50:26;101036.91;;;2.82;100.00
51468;BME280;37545;45.302;-122.946;2024-03-06T06:52:56;101045.28;;;2.79;100.00
51468;BME280;37545;45.302;-122.946;2024-03-06T06:55:28;101040.06;;;2.78;100.00
51468;BME280;37545;45.302;-122.946;2024-03-06T06:57:59;101048.63;;;2.78;100.00
51468;BME280;37545;45.302;-122.946;2024-03-06T07:00:28;101046.06;;;2.78;100.00
51468;BME280;37545;45.302;-122.946;2024-03-06T07:03:00;101049.31;;;2.76;100.00
51468;BME280;37545;45.302;-122.946;2024-03-06T07:05:29;101050.56;;;2.69;100.00
51468;BME280;37545;45.302;-122.946;2024-03-06T07:07:58;101054.00;;;2.69;100.00
51468;BME280;37545;45.302;-122.946;2024-03-06T07:10:27;101053.81;;;2.66;100.00
51468;BME280;37545;45.302;-122.946;2024-03-06T07:12:56;101049.78;;;2.57;100.00
51468;BME280;37545;45.302;-122.946;2024-03-06T07:15:40;101049.25;;;2.49;100.00
51468;BME280;37545;45.302;-122.946;2024-03-06T07:18:11;101052.03;;;2.52;100.00
51468;BME280;37545;45.302;-122.946;2024-03-06T07:20:40;101053.00;;;2.54;100.00
51468;BME280;37545;45.302;-122.946;2024-03-06T07:23:09;101057.44;;;2.57;100.00
51468;BME280;37545;45.302;-122.946;2024-03-06T07:25:38;101058.31;;;2.57;100.00
51468;BME280;37545;45.302;-122.946;2024-03-06T07:28:07;101056.75;;;2.59;100.00
51468;BME280;37545;45.302;-122.946;2024-03-06T07:30:39;101059.31;;;2.59;100.00
51468;BME280;37545;45.302;-122.946;2024-03-06T07:33:10;101057.63;;;2.60;100.00
51468;BME280;37545;45.302;-122.946;2024-03-06T07:35:40;101046.63;;;2.47;100.00
51468;BME280;37545;45.302;-122.946;2024-03-06T07:38:10;101056.16;;;2.50;100.00
51468;BME280;37545;45.302;-122.946;2024-03-06T07:40:39;101052.31;;;2.43;100.00
51468;BME280;37545;45.302;-122.946;2024-03-06T07:43:09;101065.06;;;2.43;100.00
51468;BME280;37545;45.302;-122.946;2024-03-06T07:45:46;101066.13;;;2.47;100.00
51468;BME280;37545;45.302;-122.946;2024-03-06T07:48:15;101059.16;;;2.44;100.00
51468;BME280;37545;45.302;-122.946;2024-03-06T07:50:47;101060.66;;;2.41;100.00
51468;BME280;37545;45.302;-122.946;2024-03-06T07:53:16;101068.88;;;2.37;100.00
51468;BME280;37545;45.302;-122.946;2024-03-06T07:55:45;101071.50;;;2.38;100.00
51468;BME280;37545;45.302;-122.946;2024-03-06T07:58:14;101064.84;;;2.40;100.00
51468;BME280;37545;45.302;-122.946;2024-03-06T08:00:45;101076.84;;;2.41;100.00
51468;BME280;37545;45.302;-122.946;2024-03-06T08:03:28;101070.84;;;2.41;100.00
51468;BME280;37545;45.302;-122.946;2024-03-06T08:05:57;101082.06;;;2.43;100.00
51468;BME280;37545;45.302;-122.946;2024-03-06T08:08:27;101075.75;;;2.38;100.00
51468;BME280;37545;45.302;-122.946;2024-03-06T08:10:56;101071.88;;;2.31;100.00
51468;BME280;37545;45.302;-122.946;2024-03-06T08:13:25;101069.69;;;2.24;100.00
51468;BME280;37545;45.302;-122.946;2024-03-06T08:15:56;101092.22;;;2.29;100.00
51468;BME280;37545;45.302;-122.946;2024-03-06T08:18:27;101085.13;;;2.25;100.00
51468;BME280;37545;45.302;-122.946;2024-03-06T08:20:58;101081.47;;;2.22;100.00
51468;BME280;37545;45.302;-122.946;2024-03-06T08:23:27;101080.41;;;2.18;100.00
51468;BME280;37545;45.302;-122.946;2024-03-06T08:25:57;101078.59;;;2.17;100.00
51468;BME280;37545;45.302;-122.946;2024-03-06T08:28:26;101080.97;;;2.14;100.00
51468;BME280;37545;45.302;-122.946;2024-03-06T08:31:02;101078.34;;;2.01;100.00
51468;BME280;37545;45.302;-122.946;2024-03-06T08:33:31;101089.66;;;2.04;100.00
51468;BME280;37545;45.302;-122.946;2024-03-06T08:36:00;101091.53;;;2.07;100.00
51468;BME280;37545;45.302;-122.946;2024-03-06T08:38:31;101088.97;;;2.07;100.00
51468;BME280;37545;45.302;-122.946;2024-03-06T08:41:06;101096.09;;;2.11;100.00
51468;BME280;37545;45.302;-122.946;2024-03-06T08:43:35;101093.22;;;2.06;100.00
51468;BME280;37545;45.302;-122.946;2024-03-06T08:46:09;101093.28;;;2.08;100.00
51468;BME280;37545;45.302;-122.946;2024-03-06T08:48:41;101091.41;;;2.05;100.00
51468;BME280;37545;45.302;-122.946;2024-03-06T08:51:13;101087.00;;;2.03;100.00
51468;BME280;37545;45.302;-122.946;2024-03-06T08:53:42;101087.16;;;1.93;100.00
51468;BME280;37545;45.302;-122.946;2024-03-06T08:56:12;101109.97;;;2.03;100.00
51468;BME280;37545;45.302;-122.946;2024-03-06T08:58:50;101102.78;;;1.97;100.00
51468;BME280;37545;45.302;-122.946;2024-03-06T09:01:21;101111.19;;;1.96;100.00
51468;BME280;37545;45.302;-122.946;2024-03-06T09:03:52;101113.63;;;1.95;100.00
51468;BME280;37545;45.302;-122.946;2024-03-06T09:06:24;101113.00;;;1.97;100.00
51468;BME280;37545;45.302;-122.946;2024-03-06T09:08:56;101118.19;;;1.99;100.00
51468;BME280;37545;45.302;-122.946;2024-03-06T09:11:25;101118.97;;;1.98;100.00
51468;BME280;37545;45.302;-122.946;2024-03-06T09:13:55;101114.22;;;1.91;100.00
51468;BME280;37545;45.302;-122.946;2024-03-06T09:16:28;101117.78;;;1.81;100.00
51468;BME280;37545;45.302;-122.946;2024-03-06T09:18:57;101120.00;;;1.76;100.00
51468;BME280;37545;45.302;-122.946;2024-03-06T09:21:26;101123.66;;;1.80;100.00
51468;BME280;37545;45.302;-122.946;2024-03-06T09:23:55;101117.91;;;1.82;100.00
51468;BME280;37545;45.302;-122.946;2024-03-06T09:26:30;101116.34;;;1.84;100.00
51468;BME280;37545;45.302;-122.946;2024-03-06T09:28:59;101121.25;;;1.81;100.00
51468;BME280;37545;45.302;-122.946;2024-03-06T09:31:30;101123.34;;;1.75;100.00
51468;BME280;37545;45.302;-122.946;2024-03-06T09:33:59;101122.47;;;1.75;100.00
51468;BME280;37545;45.302;-122.946;2024-03-06T09:36:39;101114.56;;;1.72;100.00
51468;BME280;37545;45.302;-122.946;2024-03-06T09:39:11;101121.59;;;1.74;100.00
51468;BME280;37545;45.302;-122.946;2024-03-06T09:41:43;101125.03;;;1.75;100.00
51468;BME280;37545;45.302;-122.946;2024-03-06T09:44:15;101120.59;;;1.72;100.00
51468;BME280;37545;45.302;-122.946;2024-03-06T09:46:50;101124.25;;;1.64;100.00
51468;BME280;37545;45.302;-122.946;2024-03-06T09:49:19;101128.16;;;1.59;100.00
51468;BME280;37545;45.302;-122.946;2024-03-06T09:51:57;101117.28;;;1.50;100.00
51468;BME280;37545;45.302;-122.946;2024-03-06T09:54:27;101124.16;;;1.51;100.00
51468;BME280;37545;45.302;-122.946;2024-03-06T09:56:56;101115.75;;;1.52;100.00
51468;BME280;37545;45.302;-122.946;2024-03-06T09:59:26;101120.16;;;1.54;100.00
51468;BME280;37545;45.302;-122.946;2024-03-06T10:02:18;101109.72;;;1.51;100.00
51468;BME280;37545;45.302;-122.946;2024-03-06T10:04:47;101114.81;;;1.51;100.00
51468;BME280;37545;45.302;-122.946;2024-03-06T10:07:19;101115.28;;;1.45;100.00
51468;BME280;37545;45.302;-122.946;2024-03-06T10:09:49;101118.38;;;1.41;100.00
51468;BME280;37545;45.302;-122.946;2024-03-06T10:12:18;101101.09;;;1.37;100.00
51468;BME280;37545;45.302;-122.946;2024-03-06T10:14:50;101115.50;;;1.37;100.00
51468;BME280;37545;45.302;-122.946;2024-03-06T10:17:26;101107.44;;;1.31;100.00
51468;BME280;37545;45.302;-122.946;2024-03-06T10:19:55;101111.88;;;1.21;100.00
51468;BME280;37545;45.302;-122.946;2024-03-06T10:22:31;101106.75;;;1.10;100.00
51468;BME280;37545;45.302;-122.946;2024-03-06T10:25:06;101110.41;;;1.13;100.00
51468;BME280;37545;45.302;-122.946;2024-03-06T10:27:36;101102.78;;;1.13;100.00
51468;BME280;37545;45.302;-122.946;2024-03-06T10:30:06;101091.91;;;1.04;100.00
51468;BME280;37545;45.302;-122.946;2024-03-06T10:32:40;101099.34;;;1.01;100.00
51468;BME280;37545;45.302;-122.946;2024-03-06T10:35:18;101089.56;;;0.95;100.00
51468;BME280;37545;45.302;-122.946;2024-03-06T10:37:49;101095.88;;;0.89;100.00
51468;BME280;37545;45.302;-122.946;2024-03-06T10:40:33;101095.78;;;0.87;100.00
51468;BME280;37545;45.302;-122.946;2024-03-06T10:43:03;101092.44;;;0.88;100.00
51468;BME280;37545;45.302;-122.946;2024-03-06T10:45:47;101097.53;;;0.88;100.00
51468;BME280;37545;45.302;-122.946;2024-03-06T10:48:20;101084.34;;;0.70;100.00
51468;BME280;37545;45.302;-122.946;2024-03-06T10:50:52;101091.84;;;0.69;100.00
51468;BME280;37545;45.302;-122.946;2024-03-06T10:53:26;101094.84;;;0.75;100.00
51468;BME280;37545;45.302;-122.946;2024-03-06T10:55:58;101095.41;;;0.71;100.00
51468;BME280;37545;45.302;-122.946;2024-03-06T10:58:30;101092.63;;;0.68;100.00
51468;BME280;37545;45.302;-122.946;2024-03-06T11:01:06;101082.09;;;0.63;100.00
51468;BME280;37545;45.302;-122.946;2024-03-06T11:03:38;101082.09;;;0.63;100.00
51468;BME280;37545;45.302;-122.946;2024-03-06T11:06:11;101078.03;;;0.65;100.00
51468;BME280;37545;45.302;-122.946;2024-03-06T11:08:42;101080.69;;;0.67;100.00
51468;BME280;37545;45.302;-122.946;2024-03-06T11:11:21;101077.34;;;0.68;100.00
51468;BME280;37545;45.302;-122.946;2024-03-06T11:13:50;101075.59;;;0.67;100.00
51468;BME280;37545;45.302;-122.946;2024-03-06T11:16:29;101076.34;;;0.66;100.00
51468;BME280;37545;45.302;-122.946;2024-03-06T11:19:12;101073.34;;;0.59;100.00
51468;BME280;37545;45.302;-122.946;2024-03-06T11:21:46;101084.78;;;0.65;100.00
51468;BME280;37545;45.302;-122.946;2024-03-06T11:24:20;101082.44;;;0.68;100.00
51468;BME280;37545;45.302;-122.946;2024-03-06T11:26:54;101078.91;;;0.66;100.00
51468;BME280;37545;45.302;-122.946;2024-03-06T11:29:28;101081.75;;;0.58;100.00
51468;BME280;37545;45.302;-122.946;2024-03-06T11:32:00;101073.34;;;0.59;100.00
51468;BME280;37545;45.302;-122.946;2024-03-06T11:34:31;101063.72;;;0.55;100.00
51468;BME280;37545;45.302;-122.946;2024-03-06T11:37:03;101069.69;;;0.56;100.00
51468;BME280;37545;45.302;-122.946;2024-03-06T11:39:36;101075.78;;;0.58;100.00
51468;BME280;37545;45.302;-122.946;2024-03-06T11:42:06;101070.78;;;0.59;100.00
51468;BME280;37545;45.302;-122.946;2024-03-06T11:44:52;101063.91;;;0.47;100.00
51468;BME280;37545;45.302;-122.946;2024-03-06T11:47:22;101065.69;;;0.48;100.00
51468;BME280;37545;45.302;-122.946;2024-03-06T11:49:59;101069.13;;;0.48;100.00
51468;BME280;37545;45.302;-122.946;2024-03-06T11:52:28;101076.66;;;0.47;100.00
51468;BME280;37545;45.302;-122.946;2024-03-06T11:54:57;101072.44;;;0.47;100.00
51468;BME280;37545;45.302;-122.946;2024-03-06T11:57:27;101074.22;;;0.48;100.00
51468;BME280;37545;45.302;-122.946;2024-03-06T12:00:03;101070.09;;;0.50;100.00
51468;BME280;37545;45.302;-122.946;2024-03-06T12:02:33;101073.56;;;0.51;100.00
51468;BME280;37545;45.302;-122.946;2024-03-06T12:05:05;101084.75;;;0.53;100.00
51468;BME280;37545;45.302;-122.946;2024-03-06T12:07:46;101078.00;;;0.53;100.00
51468;BME280;37545;45.302;-122.946;2024-03-06T12:10:16;101079.19;;;0.47;100.00
51468;BME280;37545;45.302;-122.946;2024-03-06T12:12:45;101078.19;;;0.45;100.00
51468;BME280;37545;45.302;-122.946;2024-03-06T12:15:15;101083.28;;;0.45;100.00
51468;BME280;37545;45.302;-122.946;2024-03-06T12:17:47;101091.59;;;0.42;100.00
51468;BME280;37545;45.302;-122.946;2024-03-06T12:20:20;101091.31;;;0.39;100.00
51468;BME280;37545;45.302;-122.946;2024-03-06T12:22:49;101088.34;;;0.33;100.00
51468;BME280;37545;45.302;-122.946;2024-03-06T12:25:19;101089.88;;;0.31;100.00
51468;BME280;37545;45.302;-122.946;2024-03-06T12:27:51;101090.09;;;0.34;100.00
51468;BME280;37545;45.302;-122.946;2024-03-06T12:30:21;101091.88;;;0.35;100.00
51468;BME280;37545;45.302;-122.946;2024-03-06T12:32:59;101095.44;;;0.37;100.00
51468;BME280;37545;45.302;-122.946;2024-03-06T12:35:34;101093.19;;;0.30;100.00
51468;BME280;37545;45.302;-122.946;2024-03-06T12:38:12;101099.88;;;0.17;100.00
51468;BME280;37545;45.302;-122.946;2024-03-06T12:40:47;101098.53;;;0.11;100.00
51468;BME280;37545;45.302;-122.946;2024-03-06T12:43:16;101101.72;;;0.08;100.00
51468;BME280;37545;45.302;-122.946;2024-03-06T12:45:44;101102.16;;;0.03;100.00
51468;BME280;37545;45.302;-122.946;2024-03-06T12:48:13;101109.91;;;0.04;100.00
51468;BME280;37545;45.302;-122.946;2024-03-06T12:50:48;101111.44;;;0.02;100.00
51468;BME280;37545;45.302;-122.946;2024-03-06T12:53:18;101111.44;;;0.02;100.00
51468;BME280;37545;45.302;-122.946;2024-03-06T12:55:47;101113.03;;;-0.10;100.00
51468;BME280;37545;45.302;-122.946;2024-03-06T12:58:16;101105.94;;;-0.14;100.00
51468;BME280;37545;45.302;-122.946;2024-03-06T13:00:45;101112.03;;;-0.12;100.00
51468;BME280;37545;45.302;-122.946;2024-03-06T13:03:14;101114.03;;;-0.08;100.00
51468;BME280;37545;45.302;-122.946;2024-03-06T13:05:44;101123.34;;;-0.09;100.00
51468;BME280;37545;45.302;-122.946;2024-03-06T13:08:14;101124.22;;;-0.08;100.00
51468;BME280;37545;45.302;-122.946;2024-03-06T13:10:43;101122.91;;;-0.03;100.00
51468;BME280;37545;45.302;-122.946;2024-03-06T13:13:13;101124.72;;;-0.02;100.00
51468;BME280;37545;45.302;-122.946;2024-03-06T13:15:42;101134.63;;;-0.05;100.00
51468;BME280;37545;45.302;-122.946;2024-03-06T13:18:13;101134.75;;;-0.04;100.00
51468;BME280;37545;45.302;-122.946;2024-03-06T13:20:45;101135.03;;;-0.11;100.00
51468;BME280;37545;45.302;-122.946;2024-03-06T13:23:18;101138.34;;;-0.12;100.00
51468;BME280;37545;45.302;-122.946;2024-03-06T13:25:48;101146.97;;;-0.10;100.00
51468;BME280;37545;45.302;-122.946;2024-03-06T13:28:18;101140.53;;;-0.16;100.00
51468;BME280;37545;45.302;-122.946;2024-03-06T13:30:50;101144.38;;;-0.22;100.00
51468;BME280;37545;45.302;-122.946;2024-03-06T13:33:22;101155.59;;;-0.30;100.00
51468;BME280;37545;45.302;-122.946;2024-03-06T13:35:55;101145.97;;;-0.34;100.00
51468;BME280;37545;45.302;-122.946;2024-03-06T13:38:24;101152.81;;;-0.33;100.00
51468;BME280;37545;45.302;-122.946;2024-03-06T13:40:54;101151.13;;;-0.32;100.00
51468;BME280;37545;45.302;-122.946;2024-03-06T13:43:23;101156.13;;;-0.34;100.00
51468;BME280;37545;45.302;-122.946;2024-03-06T13:45:52;101146.84;;;-0.33;100.00
51468;BME280;37545;45.302;-122.946;2024-03-06T13:48:21;101155.59;;;-0.30;100.00
51468;BME280;37545;45.302;-122.946;2024-03-06T13:50:50;101153.06;;;-0.30;100.00
51468;BME280;37545;45.302;-122.946;2024-03-06T13:53:23;101148.56;;;-0.22;100.00
51468;BME280;37545;45.302;-122.946;2024-03-06T13:55:52;101158.69;;;-0.12;100.00
51468;BME280;37545;45.302;-122.946;2024-03-06T13:58:21;101147.41;;;-0.15;100.00
51468;BME280;37545;45.302;-122.946;2024-03-06T14:00:55;101156.94;;;-0.13;100.00
51468;BME280;37545;45.302;-122.946;2024-03-06T14:03:27;101162.50;;;-0.07;100.00
51468;BME280;37545;45.302;-122.946;2024-03-06T14:06:00;101163.63;;;-0.03;100.00
51468;BME280;37545;45.302;-122.946;2024-03-06T14:08:31;101159.53;;;-0.01;100.00